Time;durP1;ratioP1;P1;durP2;ratioP2;P2;SDS_P1;SDS_P2;PMS_P1;PMS_P2;Temp;Humidity;BMP_temperature;BMP_pressure;BME280_temperature;BME280_humidity;BME280_pressure;Samples;Min_cycle;Max_cycle;Signal;HPM_P1;HPM_P2
2022/12/19 00:01:31;;;;;;;32.95;14.68;;;;;;;-4.64;88.33;102933.45;1754754;80;26744;-79
2022/12/19 00:04:01;;;;;;;35.75;15.30;;;;;;;-4.63;88.56;102920.78;1759088;81;25736;-79
2022/12/19 00:06:29;;;;;;;29.05;13.83;;;;;;;-4.61;88.70;102920.30;1759139;80;27539;-78
2022/12/19 00:08:59;;;;;;;30.25;14.47;;;;;;;-4.58;88.30;102907.17;1734044;81;26460;-79
2022/12/19 00:11:27;;;;;;;38.90;16.60;;;;;;;-4.58;88.30;102907.17;1758388;80;26424;-78
2022/12/19 00:13:53;;;;;;;30.15;13.85;;;;;;;-4.58;88.57;102915.02;1758040;81;25831;-78
2022/12/19 00:16:23;;;;;;;29.72;13.88;;;;;;;-4.58;88.39;102924.16;1754574;81;25774;-78
2022/12/19 00:18:52;;;;;;;29.80;13.18;;;;;;;-4.61;88.25;102921.61;1744591;81;27459;-78
2022/12/19 00:21:22;;;;;;;29.75;13.40;;;;;;;-4.64;88.21;102920.38;1740307;81;26317;-78
2022/12/19 00:23:50;;;;;;;37.13;15.13;;;;;;;-4.64;88.38;102919.08;1759182;81;25802;-78
2022/12/19 00:26:27;;;;;;;35.08;16.95;;;;;;;-4.62;88.37;102918.16;1757968;80;26150;-78
2022/12/19 00:28:59;;;;;;;35.48;14.15;;;;;;;-4.63;88.30;102915.55;1770267;79;25866;-79
2022/12/19 00:31:29;;;;;;;31.70;13.45;;;;;;;-4.63;88.23;102920.78;1742298;81;27459;-79
2022/12/19 00:33:56;;;;;;;;;;;;;;;-4.65;88.10;102923.44;1786973;79;25781;-78
2022/12/19 00:36:26;;;;;;;33.45;15.32;;;;;;;-4.69;88.04;102925.70;1740581;81;25858;-78
2022/12/19 00:38:55;;;;;;;30.93;15.07;;;;;;;-4.71;88.35;102915.73;1763156;81;25787;-78
2022/12/19 00:41:26;;;;;;;33.88;15.60;;;;;;;-4.71;88.35;102915.73;1776238;79;25889;-78
2022/12/19 00:44:01;;;;;;;33.10;14.45;;;;;;;-4.71;88.15;102927.50;1776083;79;27447;-78
2022/12/19 00:46:29;;;;;;;30.52;15.15;;;;;;;-4.71;88.11;102921.83;1776829;79;25840;-78
2022/12/19 00:48:56;;;;;;;32.85;14.43;;;;;;;-4.71;88.14;102927.06;1770666;79;25281;-78
2022/12/19 00:51:27;;;;;;;34.00;14.70;;;;;;;-4.71;88.10;102929.67;1791806;79;26598;-77
2022/12/19 00:53:55;;;;;;;37.13;14.65;;;;;;;-4.70;88.19;102920.92;1778058;79;26044;-78
2022/12/19 00:56:28;;;;;;;36.48;14.63;;;;;;;-4.68;88.09;102917.42;1786968;79;28170;-78
2022/12/19 00:58:56;;;;;;;34.85;15.95;;;;;;;-4.70;88.07;102910.46;1775852;80;26504;-78
2022/12/19 01:01:36;;;;;;;33.75;15.80;;;;;;;-4.73;88.02;102914.44;1767537;80;25828;-79
2022/12/19 01:04:06;;;;;;;31.10;14.50;;;;;;;-4.73;88.02;102918.36;1737162;81;25810;-78
2022/12/19 01:06:33;;;;;;;35.28;16.42;;;;;;;-4.71;88.05;102920.96;1767719;81;25954;-79
2022/12/19 01:09:00;;;;;;;29.45;13.78;;;;;;;-4.71;88.01;102914.42;1768439;79;27459;-77
2022/12/19 01:14:12;;;;;;;39.75;16.23;;;;;;;-4.68;87.98;102907.80;1763825;79;25761;-76
2022/12/19 01:16:39;;;;;;;37.38;16.00;;;;;;;-4.70;87.76;102900.44;1734267;82;25819;-78
2022/12/19 01:19:06;;;;;;;29.80;14.03;;;;;;;-4.71;87.83;102895.69;1728460;81;26367;-78
2022/12/19 01:21:36;;;;;;;35.60;14.80;;;;;;;-4.71;87.62;102898.73;1770074;80;27431;-78
2022/12/19 01:24:04;;;;;;;32.03;14.95;;;;;;;-4.73;87.76;102897.44;1781596;79;25755;-77
2022/12/19 01:26:30;;;;;;;40.67;17.73;;;;;;;-4.74;87.70;102890.51;1769551;79;26357;-77
2022/12/19 01:28:57;;;;;;;35.13;16.07;;;;;;;-4.73;87.90;102890.91;1766779;79;25910;-77
2022/12/19 01:31:23;;;;;;;33.18;16.25;;;;;;;-4.70;87.93;102884.31;1754519;80;25933;-77
2022/12/19 01:33:49;;;;;;;37.50;15.93;;;;;;;-4.68;87.82;102878.20;1690242;83;28703;-77
2022/12/19 01:36:16;;;;;;;39.55;17.57;;;;;;;-4.70;87.69;102877.78;1731536;82;25778;-77
2022/12/19 01:38:42;;;;;;;36.77;16.15;;;;;;;-4.72;87.58;102876.95;1735740;82;26057;-78
2022/12/19 01:41:09;;;;;;;36.95;15.88;;;;;;;-4.73;87.60;102872.61;1738680;82;26435;-78
2022/12/19 01:44:00;;;;;;;35.38;16.42;;;;;;;-4.70;87.75;102878.22;1739452;80;25282;-78
2022/12/19 01:46:38;;;;;;;31.40;16.02;;;;;;;-4.67;87.71;102871.63;1770192;80;27446;-77
2022/12/19 01:49:09;;;;;;;34.23;15.75;;;;;;;-4.68;87.55;102868.58;1744990;80;25675;-77
2022/12/19 01:51:40;;;;;;;39.80;16.37;;;;;;;-4.69;87.48;102866.87;1758737;79;25817;-78
2022/12/19 01:54:10;;;;;;;38.80;16.80;;;;;;;-4.69;87.47;102864.27;1769644;79;25750;-77
2022/12/19 01:56:41;;;;;;;32.85;15.70;;;;;;;-4.65;87.49;102865.05;1763609;80;26463;-77
2022/12/19 01:59:13;;;;;;;35.23;16.15;;;;;;;-4.69;87.06;102864.27;1706968;83;28291;-77
2022/12/19 02:01:44;;;;;;;36.83;15.15;;;;;;;-4.76;86.85;102854.83;1678074;83;25843;-77
2022/12/19 02:04:12;;;;;;;36.08;16.25;;;;;;;-4.84;86.64;102859.38;1704655;83;26473;-77
2022/12/19 02:06:45;;;;;;;34.92;17.07;;;;;;;-4.89;86.93;102862.09;1729359;82;26684;-77
2022/12/19 02:09:11;;;;;;;46.55;19.00;;;;;;;-4.90;86.96;102858.22;1693953;83;25890;-77
2022/12/19 02:11:37;;;;;;;38.30;18.15;;;;;;;-4.93;86.98;102860.44;1726930;81;26929;-77
2022/12/19 02:14:06;;;;;;;39.08;17.70;;;;;;;-4.92;87.12;102860.00;1736086;82;25256;-77
2022/12/19 02:16:50;;;;;;;43.35;19.27;;;;;;;-4.94;86.97;102848.25;1735546;82;25764;-77
2022/12/19 02:19:51;;;;;;;38.30;16.85;;;;;;;-4.98;86.77;102846.60;1706107;83;25776;-77
2022/12/19 02:22:29;;;;;;;39.20;16.97;;;;;;;-5.06;86.40;102848.97;1704689;83;25718;-77
2022/12/19 02:25:33;;;;;;;36.77;15.98;;;;;;;-5.16;86.37;102860.08;1738434;79;27464;-78
2022/12/19 02:28:38;;;;;;;35.33;15.78;;;;;;;-5.18;86.62;102865.78;1770247;79;25755;-77
2022/12/19 02:31:29;;;;;;;36.58;17.57;;;;;;;-5.20;86.62;102869.31;1759418;79;25779;-77
2022/12/19 02:34:04;;;;;;;50.30;22.98;;;;;;;-5.20;86.75;102865.39;1772028;80;25541;-77
2022/12/19 02:36:47;;;;;;;42.95;18.85;;;;;;;-5.19;86.70;102863.18;1769573;79;25942;-77
2022/12/19 02:39:55;;;;;;;36.53;15.78;;;;;;;-5.22;86.43;102861.52;1771224;79;27538;-79
2022/12/19 02:42:27;;;;;;;38.25;16.42;;;;;;;-5.29;86.04;102850.77;1750004;81;25812;-78
2022/12/19 02:45:00;;;;;;;41.42;19.32;;;;;;;-5.37;85.75;102854.43;1766436;80;25739;-77
2022/12/19 02:47:29;;;;;;;41.92;18.98;;;;;;;-5.41;85.60;102852.77;1755545;81;25739;-77
2022/12/19 02:49:56;;;;;;;41.90;17.77;;;;;;;-5.47;85.38;102858.13;1763496;80;25899;-77
2022/12/19 02:52:28;;;;;;;42.15;18.27;;;;;;;-5.54;85.18;102854.30;1750150;81;27456;-78
2022/12/19 02:54:59;;;;;;;44.90;19.32;;;;;;;-5.58;85.03;102856.56;1766727;81;25977;-79
2022/12/19 02:57:46;;;;;;;43.55;20.20;;;;;;;-5.61;84.80;102863.16;1766563;80;25798;-79
2022/12/19 03:00:17;;;;;;;41.63;19.75;;;;;;;-5.66;84.37;102862.81;1746662;81;25736;-78
2022/12/19 03:03:08;;;;;;;;;;;;;;;-5.68;84.46;102868.51;1766578;81;25814;-78
2022/12/19 03:05:46;;;;;;;43.87;18.95;;;;;;;-5.67;84.23;102861.98;1765382;81;27532;-79
2022/12/19 03:08:49;;;;;;;42.43;17.27;;;;;;;-5.68;84.11;102855.46;1764532;79;25733;-77
2022/12/19 03:11:16;;;;;;;47.10;18.73;;;;;;;-5.66;84.04;102851.07;1767309;79;25806;-77
2022/12/19 03:13:57;;;;;;;48.38;20.37;;;;;;;-5.67;83.70;102854.59;1766172;80;26865;-79
2022/12/19 03:16:24;;;;;;;49.95;21.25;;;;;;;-5.68;83.51;102845.02;1729849;81;26212;-78
2022/12/19 03:18:55;;;;;;;43.02;20.17;;;;;;;-5.70;83.39;102834.62;1769712;80;28262;-77
2022/12/19 03:21:43;;;;;;;49.95;21.90;;;;;;;-5.71;83.30;102829.44;1779201;80;25960;-78
2022/12/19 03:24:12;;;;;;;52.30;21.33;;;;;;;-5.72;83.38;102823.78;1755831;81;26323;-78
2022/12/19 03:27:00;;;;;;;47.75;21.27;;;;;;;-5.73;83.40;102820.78;1766170;81;25969;-77
2022/12/19 03:29:40;;;;;;;42.38;18.00;;;;;;;-5.71;83.47;102821.60;1755277;81;26106;-78
2022/12/19 03:32:10;;;;;;;40.93;17.67;;;;;;;-5.79;83.05;102818.26;1764349;80;27521;-78
2022/12/19 03:34:41;;;;;;;42.10;20.10;;;;;;;-5.89;82.99;102805.87;1763933;81;25753;-78
2022/12/19 03:37:13;;;;;;;48.80;18.52;;;;;;;-5.92;83.12;102797.26;1764525;81;25734;-78
2022/12/19 03:39:44;;;;;;;52.58;23.25;;;;;;;-5.94;83.07;102804.22;1762318;80;25909;-78
2022/12/19 03:44:59;;;;;;;54.90;21.62;;;;;;;-5.98;83.05;102793.00;1764950;81;28256;-78
2022/12/19 03:47:34;;;;;;;45.43;21.25;;;;;;;-5.98;82.98;102784.30;1774889;79;26546;-79
2022/12/19 03:50:01;;;;;;;51.15;21.73;;;;;;;-5.99;82.95;102786.52;1749945;81;25830;-77
2022/12/19 03:52:51;;;;;;;48.87;21.80;;;;;;;-6.03;82.75;102781.77;1764949;80;26198;-77
2022/12/19 03:55:37;;;;;;;43.25;19.25;;;;;;;-6.08;82.47;102783.63;1756396;79;25924;-78
2022/12/19 03:58:15;;;;;;;55.63;22.07;;;;;;;-6.17;82.44;102782.92;1760412;79;27448;-78
2022/12/19 04:00:46;;;;;;;49.18;19.95;;;;;;;-6.21;82.48;102780.83;1764439;79;26955;-77
2022/12/19 04:03:16;;;;;;;54.67;21.93;;;;;;;-6.23;82.42;102774.78;1767785;79;25729;-77
2022/12/19 04:05:45;;;;;;;46.30;19.98;;;;;;;-6.31;82.40;102757.95;1761461;79;26255;-78
2022/12/19 04:08:12;;;;;;;50.88;22.58;;;;;;;-6.39;82.26;102753.75;1762343;80;25268;-78
2022/12/19 04:10:53;;;;;;;54.60;23.52;;;;;;;-6.47;82.32;102753.91;1757134;81;27458;-78
2022/12/19 04:13:25;;;;;;;55.25;24.32;;;;;;;-6.53;82.46;102749.23;1759495;79;25836;-77
2022/12/19 04:15:59;;;;;;;55.55;22.13;;;;;;;-6.55;82.66;102754.48;1760250;79;26518;-78
2022/12/19 04:18:26;;;;;;;56.48;25.20;;;;;;;-6.61;82.55;102749.82;1761634;79;26323;-78
2022/12/19 04:21:07;;;;;;;43.08;19.87;;;;;;;-6.62;82.74;102746.78;1762407;79;25897;-77
2022/12/19 04:23:47;;;;;;;53.63;22.42;;;;;;;-6.68;82.50;102751.66;1760799;79;28263;-77
2022/12/19 04:26:15;;;;;;;50.63;21.82;;;;;;;-6.77;82.29;102750.94;1764273;79;25962;-78
2022/12/19 04:28:53;;;;;;;53.68;24.65;;;;;;;-6.90;82.11;102748.11;1762933;80;25856;-78
2022/12/19 04:31:20;;;;;;;54.05;22.17;;;;;;;-6.96;82.26;102751.68;1765230;79;25717;-78
2022/12/19 04:33:47;;;;;;;52.00;23.20;;;;;;;-7.01;82.23;102748.27;1768901;79;25374;-78
2022/12/19 04:36:13;;;;;;;55.23;23.15;;;;;;;-7.02;82.35;102743.09;1767947;80;28898;-77
2022/12/19 04:38:40;;;;;;;56.55;24.30;;;;;;;-7.07;82.15;102738.82;1764396;80;26643;-78
2022/12/19 04:41:06;;;;;;;60.00;23.32;;;;;;;-7.10;82.12;102738.02;1765699;80;25318;-77
2022/12/19 04:43:33;;;;;;;51.85;22.05;;;;;;;-7.14;82.06;102734.58;1764969;81;25747;-77
2022/12/19 04:45:59;;;;;;;58.28;23.75;;;;;;;-7.21;81.70;102727.77;1761350;80;25886;-77
2022/12/19 04:48:26;;;;;;;62.40;24.92;;;;;;;-7.23;81.75;102719.09;1760431;80;27439;-78
2022/12/19 04:50:52;;;;;;;67.12;28.45;;;;;;;-7.23;81.87;102725.59;1765787;80;25821;-78
2022/12/19 04:53:19;;;;;;;73.83;31.40;;;;;;;-7.22;81.75;102720.82;1768151;80;25854;-79
2022/12/19 04:55:45;;;;;;;80.83;34.03;;;;;;;-7.20;81.72;102722.09;1761759;79;26599;-77
2022/12/19 04:58:11;;;;;;;81.70;35.28;;;;;;;-7.19;81.62;102720.79;1763646;81;26502;-78
2022/12/19 05:00:38;;;;;;;83.62;34.58;;;;;;;-7.19;81.41;102718.19;1761757;80;28237;-78
2022/12/19 05:03:04;;;;;;;86.47;33.02;;;;;;;-7.20;81.18;102720.79;1760205;80;25729;-78
2022/12/19 05:05:30;;;;;;;82.75;35.20;;;;;;;-7.22;81.05;102728.63;1763166;80;25795;-78
2022/12/19 05:07:57;;;;;;;71.05;29.35;;;;;;;-7.23;80.93;102729.50;1761181;80;25817;-78
2022/12/19 05:10:23;;;;;;;72.22;28.47;;;;;;;-7.25;80.78;102735.64;1760562;80;25823;-78
2022/12/19 05:12:49;;;;;;;67.25;29.80;;;;;;;-7.31;80.61;102738.30;1760321;80;28269;-77
2022/12/19 05:15:16;;;;;;;58.20;25.05;;;;;;;-7.33;80.83;102742.67;1767092;80;25856;-78
2022/12/19 05:17:42;;;;;;;56.53;23.55;;;;;;;-7.38;80.69;102745.37;1768825;80;26407;-77
2022/12/19 05:20:09;;;;;;;43.55;19.92;;;;;;;-7.42;80.68;102740.22;1761942;80;26227;-78
2022/12/19 05:22:35;;;;;;;49.58;22.07;;;;;;;-7.47;80.47;102744.62;1764575;80;25700;-78
2022/12/19 05:25:02;;;;;;;52.60;23.02;;;;;;;-7.49;80.62;102746.38;1762611;80;27613;-78
2022/12/19 05:27:29;;;;;;;54.80;21.97;;;;;;;-7.47;80.51;102745.92;1762143;80;26008;-78
2022/12/19 05:29:55;;;;;;;50.92;24.00;;;;;;;-7.47;80.39;102746.79;1752377;80;25904;-78
2022/12/19 05:32:21;;;;;;;57.95;24.10;;;;;;;-7.46;80.39;102738.08;1768947;79;26612;-77
2022/12/19 05:34:47;;;;;;;59.25;24.23;;;;;;;-7.43;80.22;102734.58;1768159;79;25784;-78
2022/12/19 05:37:14;;;;;;;49.85;21.52;;;;;;;-7.44;80.09;102728.51;1770354;79;27433;-77
2022/12/19 05:39:40;;;;;;;50.70;22.60;;;;;;;-7.42;80.19;102728.52;1766354;79;26472;-78
2022/12/19 05:42:06;;;;;;;59.45;24.80;;;;;;;-7.42;80.23;102724.14;1772318;79;25715;-77
2022/12/19 05:44:33;;;;;;;57.78;26.93;;;;;;;-7.42;80.10;102720.70;1772387;79;26506;-79
2022/12/19 05:46:59;;;;;;;58.92;27.40;;;;;;;-7.43;80.10;102720.27;1774085;79;26345;-78
2022/12/19 05:49:25;;;;;;;60.92;26.70;;;;;;;-7.43;80.10;102715.06;1770018;79;27488;-79
2022/12/19 05:51:51;;;;;;;61.35;27.22;;;;;;;-7.46;80.17;102715.13;1769475;80;25801;-77
2022/12/19 05:54:18;;;;;;;61.75;29.07;;;;;;;-7.49;80.10;102708.64;1769507;79;25714;-78
2022/12/19 05:56:44;;;;;;;60.50;26.68;;;;;;;-7.50;80.21;102709.08;1771098;79;25469;-78
2022/12/19 05:59:10;;;;;;;56.08;25.52;;;;;;;-7.50;80.14;102709.08;1770585;79;25814;-78
2022/12/19 06:01:37;;;;;;;65.03;26.50;;;;;;;-7.53;80.13;102710.45;1767948;79;27433;-78
2022/12/19 06:04:04;;;;;;;65.85;29.75;;;;;;;-7.58;80.17;102699.22;1774665;79;26464;-79
2022/12/19 06:06:30;;;;;;;205.80;92.33;;;;;;;-7.58;80.17;102694.45;1775513;79;25857;-78
2022/12/19 06:08:58;;;;;;;264.25;105.10;;;;;;;-7.60;80.13;102705.33;1774298;79;26231;-79
2022/12/19 06:11:26;;;;;;;248.15;88.40;;;;;;;-7.60;80.11;102701.42;1776574;79;25802;-78
2022/12/19 06:13:53;;;;;;;450.02;184.15;;;;;;;-7.60;79.94;102706.62;1774045;79;27438;-78
2022/12/19 06:16:21;;;;;;;335.93;158.63;;;;;;;-7.65;79.69;102709.28;1770406;80;25876;-78
2022/12/19 06:18:48;;;;;;;219.62;106.00;;;;;;;-7.71;79.58;102695.50;1770427;79;25740;-77
2022/12/19 06:21:21;;;;;;;118.70;53.92;;;;;;;-7.76;79.71;102690.35;1775262;79;25954;-77
2022/12/19 06:23:49;;;;;;;71.45;34.00;;;;;;;-7.78;79.66;102699.08;1771929;79;25759;-78
2022/12/19 06:26:18;;;;;;;100.00;50.70;;;;;;;-7.87;79.60;102697.00;1769518;80;27431;-78
2022/12/19 06:28:44;;;;;;;205.80;102.07;;;;;;;-7.90;79.78;102689.25;1750248;81;25811;-77
2022/12/19 06:31:11;;;;;;;157.22;78.92;;;;;;;-7.91;79.68;102688.81;1753561;81;25768;-78
2022/12/19 06:33:38;;;;;;;437.00;202.62;;;;;;;-7.96;80.15;102694.53;1732844;81;26611;-77
2022/12/19 06:36:21;;;;;;;352.98;154.10;;;;;;;-7.94;80.00;102686.70;1737203;81;26553;-78
2022/12/19 06:38:49;;;;;;;327.77;124.50;;;;;;;-7.95;79.89;102691.03;1733507;81;28382;-77
2022/12/19 06:44:05;;;;;;;602.08;235.78;;;;;;;-8.09;79.38;102690.78;1742583;81;25818;-78
2022/12/19 06:46:32;;;;;;;545.67;237.78;;;;;;;-8.10;79.57;102691.65;1748906;80;25592;-78
2022/12/19 06:48:59;;;;;;;326.60;140.92;;;;;;;-8.12;79.54;102692.11;1740570;81;26278;-78
2022/12/19 06:51:26;;;;;;;306.73;129.82;;;;;;;-8.19;79.49;102702.18;1740564;81;27428;-78
2022/12/19 06:53:52;;;;;;;371.40;164.95;;;;;;;-8.28;79.38;102699.28;1753756;81;26219;-77
2022/12/19 06:56:19;;;;;;;213.45;102.30;;;;;;;-8.33;79.55;102701.48;1744883;81;25866;-77
2022/12/19 06:58:45;;;;;;;127.47;60.45;;;;;;;-8.36;79.57;102697.64;1748929;81;26422;-76
2022/12/19 07:01:17;;;;;;;338.45;167.60;;;;;;;-8.37;79.63;102701.97;1743828;81;25980;-78
2022/12/19 07:03:46;;;;;;;120.77;62.45;;;;;;;-8.39;79.58;102700.26;1726895;82;27469;-78
2022/12/19 07:06:12;;;;;;;86.37;42.33;;;;;;;-8.44;79.47;102695.53;1728942;82;25766;-77
2022/12/19 07:08:38;;;;;;;149.30;76.33;;;;;;;-8.44;79.66;102686.01;1722362;82;25976;-80
2022/12/19 07:11:05;;;;;;;72.17;34.63;;;;;;;-8.42;79.66;102686.85;1732379;81;26440;-78
2022/12/19 07:13:31;;;;;;;92.40;49.75;;;;;;;-8.43;79.55;102688.17;1731680;82;25984;-78
2022/12/19 07:16:03;;;;;;;93.03;42.48;;;;;;;-8.45;79.58;102683.00;1727889;82;27299;-77
2022/12/19 07:18:34;;;;;;;72.75;34.70;;;;;;;-8.45;79.62;102693.40;1718731;81;25913;-77
2022/12/19 07:21:01;;;;;;;68.92;32.30;;;;;;;-8.45;79.55;102686.03;1728264;82;26415;-77
2022/12/19 07:23:28;;;;;;;78.22;36.40;;;;;;;-8.45;79.59;102682.13;1722891;81;26253;-77
2022/12/19 07:25:54;;;;;;;74.07;31.62;;;;;;;-8.49;79.30;102680.45;1731109;82;26354;-78
2022/12/19 07:28:21;;;;;;;77.67;33.00;;;;;;;-8.54;79.28;102676.59;1747393;79;27453;-78
2022/12/19 07:30:47;;;;;;;69.58;31.97;;;;;;;-8.56;79.26;102682.68;1762787;81;25759;-79
2022/12/19 07:33:13;;;;;;;67.70;30.25;;;;;;;-8.58;79.39;102681.41;1765085;79;25834;-78
2022/12/19 07:35:39;;;;;;;69.55;32.38;;;;;;;-8.57;79.49;102675.78;1740148;81;25811;-77
2022/12/19 07:38:07;;;;;;;80.20;32.98;;;;;;;-8.59;79.49;102681.40;1770891;79;26468;-78
2022/12/19 07:40:35;;;;;;;90.62;42.78;;;;;;;-8.60;79.62;102693.55;1717202;81;27649;-78
2022/12/19 07:43:04;;;;;;;53.98;26.75;;;;;;;-8.61;79.68;102692.24;1767616;79;25805;-79
2022/12/19 07:45:32;;;;;;;60.30;25.27;;;;;;;-8.63;79.65;102696.16;1768271;79;26401;-77
2022/12/19 07:48:03;;;;;;;96.87;44.20;;;;;;;-8.69;79.61;102698.83;1790524;79;25924;-78
2022/12/19 07:50:30;;;;;;;67.60;30.12;;;;;;;-8.70;79.76;102690.59;1738233;81;25870;-84
2022/12/19 07:52:57;;;;;;;71.25;31.40;;;;;;;-8.69;79.89;102700.13;1770455;80;27428;-84
2022/12/19 07:55:24;;;;;;;72.58;32.30;;;;;;;-8.67;80.10;102701.84;1760080;80;26041;-82
2022/12/19 07:57:54;;;;;;;71.30;30.70;;;;;;;-8.62;80.06;102690.53;1759218;80;25922;-85
2022/12/19 08:00:21;;;;;;;80.80;32.48;;;;;;;-8.62;80.02;102691.84;1758843;79;26023;-86
2022/12/19 08:02:47;;;;;;;79.92;32.08;;;;;;;-8.61;80.11;102684.02;1773153;79;25927;-87
2022/12/19 08:05:45;;;;;;;;;;;;;;;;;;;;;
2022/12/19 08:08:23;;;;;;;;;;;;;;;;;;;;;
2022/12/19 08:10:56;;;;;;;;;;;;;;;;;;;;;
2022/12/19 08:13:18;;;;;;;118.28;49.80;;;;;;;-8.59;80.07;102678.38;1733233;81;25998;-86
2022/12/19 08:15:45;;;;;;;81.95;35.88;;;;;;;-8.59;80.12;102676.20;1761326;80;25279;-86
2022/12/19 08:18:11;;;;;;;84.75;37.85;;;;;;;-8.57;80.12;102671.88;1752688;81;28320;-87
2022/12/19 08:20:37;;;;;;;83.37;37.38;;;;;;;-8.58;80.17;102669.72;1763530;79;26278;-80
2022/12/19 08:36:10;;;;;;;97.02;42.30;;;;;;;-7.59;79.05;102637.64;1755449;81;26416;-86
2022/12/19 08:38:38;;;;;;;85.90;37.78;;;;;;;-7.70;78.84;102644.77;1762857;80;26048;-77
2022/12/19 08:41:06;;;;;;;76.77;35.92;;;;;;;-7.74;78.99;102646.13;1753555;81;28883;-85
2022/12/19 08:43:33;;;;;;;100.75;43.13;;;;;;;-7.81;79.03;102644.48;1749777;80;25946;-87
2022/12/19 08:46:06;;;;;;;93.92;40.80;;;;;;;-7.86;79.13;102635.44;1753634;80;25838;-91
2022/12/19 08:48:34;;;;;;;83.82;36.25;;;;;;;-7.84;79.36;102633.67;1783321;80;25903;-76
2022/12/19 08:51:05;;;;;;;84.40;36.10;;;;;;;-7.79;79.56;102630.59;1741480;80;25940;-76
2022/12/19 08:53:37;;;;;;;88.60;36.77;;;;;;;-7.74;79.62;102618.34;1756066;81;27528;-86
2022/12/19 08:56:09;;;;;;;91.10;36.20;;;;;;;-7.69;79.71;102613.95;1751978;80;26514;-89
2022/12/19 08:58:35;;;;;;;84.72;37.45;;;;;;;-7.65;79.66;102603.05;1746740;81;25278;-77
2022/12/19 09:01:07;;;;;;;81.35;32.83;;;;;;;-7.68;79.56;102597.91;1753884;80;25770;-88
2022/12/19 09:03:34;;;;;;;79.27;31.65;;;;;;;-7.73;79.42;102599.27;1759226;80;26406;-77
2022/12/19 09:06:04;;;;;;;95.25;36.25;;;;;;;-7.73;79.67;102590.61;1786486;78;28267;-77
2022/12/19 09:08:38;;;;;;;124.27;52.03;;;;;;;-7.74;79.60;102587.13;1779430;79;26461;-77
2022/12/19 09:11:15;;;;;;;128.03;48.70;;;;;;;-7.75;79.64;102586.73;1748930;81;25742;-76
2022/12/19 09:13:42;;;;;;;121.42;46.02;;;;;;;-7.75;79.70;102589.34;1733595;81;25948;-77
2022/12/19 09:16:21;;;;;;;259.83;84.35;;;;;;;-7.73;79.80;102591.47;1749616;81;26001;-83
2022/12/19 09:18:51;;;;;;;213.10;72.55;;;;;;;-7.74;79.78;102585.84;1743292;81;27408;-75
2022/12/19 09:21:21;;;;;;;431.00;136.12;;;;;;;-7.69;80.30;102585.34;1747998;81;25553;-81
2022/12/19 09:23:52;;;;;;;227.78;98.07;;;;;;;-7.58;80.67;102578.66;1756035;80;25708;-75
2022/12/19 09:26:19;;;;;;;;;;;;;;;-7.49;80.90;102572.89;1754185;80;25784;-87
2022/12/19 09:28:46;;;;;;;125.70;57.60;;;;;;;-7.42;80.65;102565.37;1758774;80;26313;-83
2022/12/19 09:31:20;;;;;;;106.72;55.43;;;;;;;-7.39;80.32;102551.45;1754998;81;27440;-83
2022/12/19 09:33:47;;;;;;;108.70;52.08;;;;;;;-7.39;80.11;102542.34;1738065;81;25760;-83
2022/12/19 09:36:21;;;;;;;102.65;49.18;;;;;;;-7.28;80.74;102550.83;1751993;80;26065;-86
2022/12/19 09:38:49;;;;;;;97.22;45.25;;;;;;;-7.19;80.66;102537.23;1744411;81;25949;-87
2022/12/19 09:41:44;;;;;;;90.90;47.03;;;;;;;-7.11;80.35;102539.24;1753752;80;25364;-76
2022/12/19 09:44:41;;;;;;;84.95;40.48;;;;;;;-7.04;80.16;102530.88;1778125;79;28301;-75
2022/12/19 09:47:18;;;;;;;85.57;37.03;;;;;;;-6.98;80.04;102528.59;1777670;78;25794;-76
2022/12/19 09:49:47;;;;;;;87.20;41.40;;;;;;;-6.92;79.99;102523.25;1782008;78;25814;-86
2022/12/19 09:52:34;;;;;;;101.38;53.75;;;;;;;-6.92;79.74;102521.52;1777408;78;25747;-78
2022/12/19 09:55:24;;;;;;;83.25;37.60;;;;;;;-6.90;79.72;102522.78;1788936;79;25397;-83
2022/12/19 09:58:14;;;;;;;80.30;37.85;;;;;;;-6.89;79.63;102508.88;1779580;78;27505;-86
2022/12/19 10:00:49;;;;;;;100.23;52.60;;;;;;;-6.92;79.54;102508.49;1781747;80;26163;-77
2022/12/19 10:03:39;;;;;;;109.32;55.23;;;;;;;-6.89;79.58;102508.88;1762309;80;26329;-85
2022/12/19 10:06:17;;;;;;;96.37;41.60;;;;;;;-6.86;79.57;102517.48;1771977;80;25731;-79
2022/12/19 10:08:44;;;;;;;81.00;34.55;;;;;;;-6.78;79.55;102507.80;1767961;80;26242;-83
2022/12/19 10:11:37;;;;;;;91.60;42.48;;;;;;;-6.75;79.41;102506.41;1774871;79;28301;-78
2022/12/19 10:14:24;;;;;;;77.55;35.35;;;;;;;-6.70;79.49;102513.70;1770740;80;26488;-79
2022/12/19 10:17:05;;;;;;;99.25;50.83;;;;;;;-6.68;79.29;102501.50;1782177;80;25817;-79
2022/12/19 10:19:52;;;;;;;124.62;68.25;;;;;;;-6.61;79.40;102494.41;1778372;79;26400;-79
2022/12/19 10:22:50;;;;;;;90.12;42.88;;;;;;;-6.53;79.46;102489.45;1783493;78;25818;-86
2022/12/19 10:28:21;;;;;;;83.58;38.15;;;;;;;-6.39;79.44;102469.14;1734237;82;25647;-86
2022/12/19 10:31:19;;;;;;;72.42;31.27;;;;;;;-6.28;79.50;102475.42;1718435;82;25505;-84
2022/12/19 10:34:02;;;;;;;72.35;30.70;;;;;;;-6.23;79.03;102468.80;1706229;82;25406;-87
2022/12/19 10:36:34;;;;;;;64.07;27.90;;;;;;;-6.23;78.86;102452.72;1706559;82;26183;-78
2022/12/19 10:39:05;;;;;;;89.87;41.70;;;;;;;-6.22;78.81;102445.76;1713203;83;27464;-77
2022/12/19 10:41:33;;;;;;;77.72;36.68;;;;;;;-6.19;78.98;102433.94;1725544;81;26459;-77
2022/12/19 10:44:06;;;;;;;88.05;36.42;;;;;;;-6.16;78.81;102425.61;1723998;81;25793;-77
2022/12/19 10:46:46;;;;;;;106.58;48.52;;;;;;;-6.13;78.70;102417.70;1735654;82;25890;-79
2022/12/19 10:49:26;;;;;;;;;;;;;;;-6.08;78.68;102406.71;1729073;82;25764;-85
2022/12/19 10:51:58;;;;;;;227.15;106.22;;;;;;;-6.03;78.72;102409.21;1730657;81;28291;-86
2022/12/19 10:54:39;;;;;;;157.62;68.92;;;;;;;-5.97;78.67;102398.19;1697016;83;26462;-83
2022/12/19 10:57:25;;;;;;;186.97;72.42;;;;;;;-5.93;78.87;102398.95;1709604;82;25820;-81
2022/12/19 11:00:02;;;;;;;153.12;63.30;;;;;;;-5.92;78.11;102388.94;1735928;82;25831;-79
2022/12/19 11:02:41;;;;;;;319.32;104.80;;;;;;;-5.91;78.03;102394.55;1733442;82;26365;-83
2022/12/19 11:05:49;;;;;;;183.68;71.07;;;;;;;-5.91;77.92;102389.33;1732046;82;27465;-82
2022/12/19 11:08:31;;;;;;;105.55;50.58;;;;;;;-5.87;78.46;102388.35;1733764;82;25314;-80
2022/12/19 11:11:09;;;;;;;179.82;78.05;;;;;;;-5.83;78.70;102368.64;1732856;82;25825;-78
2022/12/19 11:13:41;;;;;;;163.97;76.72;;;;;;;-5.81;78.16;102362.92;1736942;82;26294;-86
2022/12/19 11:16:08;;;;;;;123.53;51.80;;;;;;;-5.77;77.95;102373.69;1710691;82;25362;-85
2022/12/19 11:18:44;;;;;;;88.10;38.65;;;;;;;-5.75;78.12;102366.67;1704889;82;27456;-81
2022/12/19 11:21:27;;;;;;;92.40;39.80;;;;;;;-5.70;77.94;102369.16;1715261;82;25867;-90
2022/12/19 11:24:04;;;;;;;101.80;48.55;;;;;;;-5.67;77.70;102361.27;1725939;82;25942;-78
2022/12/19 11:26:36;;;;;;;124.40;64.95;;;;;;;-5.65;77.70;102359.47;1724893;81;26050;-86
2022/12/19 11:29:20;;;;;;;110.03;53.75;;;;;;;-5.60;77.78;102357.12;1728772;81;25299;-89
2022/12/19 11:31:49;;;;;;;93.58;39.23;;;;;;;-5.55;77.72;102352.66;1735844;81;27462;-88
2022/12/19 11:34:21;;;;;;;115.82;55.83;;;;;;;-5.50;78.03;102329.03;1740657;81;26369;-87
2022/12/19 11:37:14;;;;;;;110.40;56.10;;;;;;;-5.44;77.77;102326.69;1691957;83;25869;-90
2022/12/19 11:39:57;;;;;;;89.03;41.92;;;;;;;-5.42;77.83;102317.91;1682798;83;25922;-75
2022/12/19 11:42:38;;;;;;;107.50;54.65;;;;;;;-5.38;77.43;102305.61;1703820;83;26213;-89
2022/12/19 11:45:14;;;;;;;;;;;;;;;-5.32;77.91;102292.41;1711614;82;27437;-88
2022/12/19 11:47:46;;;;;;;84.17;44.30;;;;;;;-5.30;77.44;102283.59;1684161;82;25832;-81
2022/12/19 11:50:32;;;;;;;64.77;31.77;;;;;;;-5.32;77.18;102287.19;1738184;81;25849;-82
2022/12/19 11:53:19;;;;;;;69.67;36.50;;;;;;;-5.35;76.79;102291.17;1726318;81;25800;-76
2022/12/19 11:55:54;;;;;;;59.88;25.77;;;;;;;-5.34;79.22;102289.81;1735662;81;25769;-88
2022/12/19 11:58:24;;;;;;;56.65;27.62;;;;;;;-5.16;78.84;102300.17;1726847;81;27447;-88
2022/12/19 12:01:01;;;;;;;70.00;34.38;;;;;;;-5.13;77.95;102300.10;1739390;81;25762;-85